Time;durP1;ratioP1;P1;durP2;ratioP2;P2;SDS_P1;SDS_P2;PMS_P1;PMS_P2;Temp;Humidity;BMP_temperature;BMP_pressure;BME280_temperature;BME280_humidity;BME280_pressure;Samples;Min_cycle;Max_cycle;Signal;HPM_P1;HPM_P2
2022/08/28 00:00:36;;;;;;;0.30;0.30;;;;;;;17.08;64.88;102074.06;2103675;28;20056;-66
2022/08/28 00:01:38;;;;;;;0.20;0.20;;;;;;;17.06;64.95;102084.56;2109679;28;20107;-65
2022/08/28 00:02:45;;;;;;;0.15;0.15;;;;;;;17.04;65.08;102075.94;2096773;28;20049;-65
2022/08/28 00:03:48;;;;;;;0.30;0.30;;;;;;;16.99;65.20;102079.72;2104102;28;20047;-65
2022/08/28 00:04:54;;;;;;;0.30;0.30;;;;;;;17.00;65.01;102083.25;2109334;28;20048;-65
2022/08/28 00:05:58;;;;;;;0.30;0.30;;;;;;;16.96;65.57;102082.34;2112740;28;20112;-65
2022/08/28 00:07:03;;;;;;;0.30;0.30;;;;;;;16.94;65.28;102076.47;2103093;28;20051;-65
2022/08/28 00:08:07;;;;;;;0.20;0.20;;;;;;;16.95;65.37;102083.50;2102562;28;20052;-65
2022/08/28 00:09:11;;;;;;;0.30;0.30;;;;;;;16.94;65.38;102081.91;2112727;28;20414;-65
2022/08/28 00:10:17;;;;;;;0.20;0.20;;;;;;;16.94;65.13;102082.72;2103268;28;20060;-65
2022/08/28 00:11:22;;;;;;;0.28;0.28;;;;;;;16.92;65.35;102076.03;2102253;28;20400;-65
2022/08/28 00:12:25;;;;;;;0.30;0.30;;;;;;;16.94;65.46;102081.91;2104661;28;20609;-65
2022/08/28 00:13:33;;;;;;;0.30;0.30;;;;;;;16.95;65.56;102078.06;2104981;28;20055;-65
2022/08/28 00:14:35;;;;;;;0.30;0.30;;;;;;;16.96;65.37;102085.09;2107631;28;20674;-65
2022/08/28 00:15:41;;;;;;;0.30;0.30;;;;;;;16.96;65.42;102080.44;2096746;28;20064;-65
2022/08/28 00:16:44;;;;;;;0.30;0.30;;;;;;;16.98;65.34;102082.81;2100449;28;20090;-66
2022/08/28 00:17:49;;;;;;;0.20;0.20;;;;;;;17.00;65.39;102084.03;2102061;28;20131;-65
2022/08/28 00:18:52;;;;;;;0.20;0.20;;;;;;;16.99;65.35;102087.91;2095971;28;20060;-66
2022/08/28 00:19:55;;;;;;;0.20;0.20;;;;;;;17.02;65.24;102083.66;2103405;28;20532;-65
2022/08/28 00:21:00;;;;;;;0.30;0.30;;;;;;;17.03;65.21;102086.03;2108130;28;20503;-65
2022/08/28 00:22:04;;;;;;;0.20;0.20;;;;;;;17.03;65.46;102085.28;2104718;28;20056;-65
2022/08/28 00:23:08;;;;;;;0.30;0.30;;;;;;;17.03;65.61;102082.53;2102400;28;20040;-65
2022/08/28 00:24:12;;;;;;;0.20;0.20;;;;;;;17.06;65.54;102088.06;2096636;28;20557;-66
2022/08/28 00:25:16;;;;;;;0.20;0.20;;;;;;;17.07;65.47;102077.94;2102588;28;20150;-66
2022/08/28 00:27:52;;;;;;;0.20;0.20;;;;;;;17.06;66.14;102081.84;2112727;28;20486;-65
2022/08/28 00:28:57;;;;;;;0.30;0.30;;;;;;;17.03;65.93;102079.81;2096547;28;20105;-65
2022/08/28 00:30:00;;;;;;;0.30;0.30;;;;;;;17.06;66.18;102079.09;2100829;28;20163;-65
2022/08/28 00:31:06;;;;;;;0.30;0.30;;;;;;;17.07;66.24;102086.13;2104440;28;20044;-66
2022/08/28 00:32:10;;;;;;;0.30;0.30;;;;;;;17.06;66.25;102077.16;2096636;28;20053;-65
2022/08/28 00:33:18;;;;;;;0.28;0.28;;;;;;;17.07;66.38;102076.03;2105191;28;20040;-65
2022/08/28 00:34:22;;;;;;;0.30;0.30;;;;;;;17.05;66.38;102078.31;2111977;28;20104;-66
2022/08/28 00:35:36;;;;;;;0.30;0.30;;;;;;;17.04;66.44;102071.28;2096760;28;20060;-65
2022/08/28 00:36:40;;;;;;;0.30;0.30;;;;;;;17.08;66.60;102071.34;2096186;28;20061;-65
2022/08/28 00:37:44;;;;;;;0.30;0.30;;;;;;;17.10;66.29;102074.50;2096578;28;20498;-65
2022/08/28 00:38:51;;;;;;;0.20;0.20;;;;;;;17.11;66.01;102073.38;2096786;28;20128;-65
2022/08/28 00:39:56;;;;;;;0.28;0.28;;;;;;;17.13;66.42;102073.78;2095771;28;20588;-66
2022/08/28 00:41:02;;;;;;;0.30;0.30;;;;;;;17.12;66.51;102067.56;2101416;28;20101;-66
2022/08/28 00:42:07;;;;;;;0.30;0.30;;;;;;;17.08;66.39;102069.41;2104243;28;20047;-65
2022/08/28 00:43:22;;;;;;;0.30;0.30;;;;;;;17.06;66.32;102070.91;2097214;28;20407;-66
2022/08/28 00:44:26;;;;;;;0.28;0.28;;;;;;;16.97;66.35;102064.84;2100239;28;20457;-64
2022/08/28 00:45:32;;;;;;;0.20;0.20;;;;;;;16.95;66.65;102067.16;2105062;28;20048;-63
2022/08/28 00:46:44;;;;;;;0.30;0.30;;;;;;;16.90;66.48;102075.59;2096410;28;20056;-64
2022/08/28 00:47:49;;;;;;;0.20;0.20;;;;;;;16.90;66.13;102067.41;2096389;28;20417;-65
2022/08/28 00:48:53;;;;;;;0.20;0.20;;;;;;;16.89;66.16;102074.00;2097988;28;20053;-65
2022/08/28 00:49:58;;;;;;;0.20;0.20;;;;;;;16.91;65.91;102071.72;2112717;28;20051;-65
2022/08/28 00:52:25;;;;;;;0.20;0.20;;;;;;;16.84;65.69;102066.88;2103270;28;20474;-65
2022/08/28 00:53:30;;;;;;;0.20;0.20;;;;;;;16.86;65.62;102074.69;2113452;28;20043;-65
2022/08/28 00:54:40;;;;;;;0.20;0.20;;;;;;;16.84;65.67;102072.31;2104673;28;20048;-65
2022/08/28 00:56:01;;;;;;;0.30;0.30;;;;;;;16.75;65.68;102068.19;2104539;28;20502;-65
2022/08/28 00:57:21;;;;;;;0.30;0.30;;;;;;;16.74;66.03;102072.06;2103692;28;20060;-65
2022/08/28 00:58:28;;;;;;;0.22;0.22;;;;;;;16.71;66.12;102068.13;2104474;28;20595;-65
2022/08/28 00:59:31;;;;;;;0.30;0.30;;;;;;;16.72;66.15;102071.63;2112560;28;20126;-65
2022/08/28 01:00:35;;;;;;;0.20;0.20;;;;;;;16.74;66.02;102072.06;2112293;28;20048;-65
2022/08/28 01:01:38;;;;;;;0.20;0.20;;;;;;;16.74;65.92;102072.06;2112187;28;20146;-66
2022/08/28 01:02:42;;;;;;;0.22;0.22;;;;;;;16.73;65.97;102070.50;2095776;28;20428;-66
2022/08/28 01:03:46;;;;;;;0.30;0.30;;;;;;;16.74;66.01;102063.88;2104444;28;20602;-66
2022/08/28 01:04:48;;;;;;;0.22;0.22;;;;;;;16.76;65.91;102067.06;2113204;28;20132;-66
2022/08/28 01:05:51;;;;;;;0.20;0.20;;;;;;;16.75;65.85;102068.19;2105180;28;20060;-66
2022/08/28 01:06:55;;;;;;;0.20;0.20;;;;;;;16.76;66.07;102072.53;2108170;28;20138;-65
2022/08/28 01:07:59;;;;;;;0.20;0.20;;;;;;;16.75;66.23;102068.19;2113386;28;20122;-65
2022/08/28 01:09:01;;;;;;;0.20;0.20;;;;;;;16.74;66.03;102072.06;2112303;28;20056;-65
2022/08/28 01:10:08;;;;;;;0.30;0.30;;;;;;;16.77;66.09;102060.47;2112836;28;20163;-66
2022/08/28 01:11:12;;;;;;;0.25;0.25;;;;;;;16.77;66.07;102065.91;2113379;28;20491;-66
2022/08/28 01:12:19;;;;;;;0.25;0.25;;;;;;;16.77;66.09;102063.19;2112368;28;20467;-66
2022/08/28 01:13:23;;;;;;;0.25;0.25;;;;;;;16.77;66.23;102065.91;2108498;28;20492;-65
2022/08/28 01:14:28;;;;;;;0.20;0.20;;;;;;;16.76;66.32;102061.63;2105020;28;20526;-66
2022/08/28 01:15:36;;;;;;;0.30;0.30;;;;;;;16.73;66.57;102057.63;2113151;28;20051;-66
2022/08/28 01:16:40;;;;;;;0.20;0.20;;;;;;;16.72;66.61;102053.34;2112499;28;20451;-65
2022/08/28 01:17:53;;;;;;;0.20;0.20;;;;;;;16.66;66.91;102054.75;2113329;28;20059;-66
2022/08/28 01:18:56;;;;;;;0.28;0.28;;;;;;;16.68;66.94;102051.66;2096606;28;20133;-66
2022/08/28 01:20:03;;;;;;;0.20;0.20;;;;;;;16.67;66.76;102052.78;2106830;28;20447;-65
2022/08/28 01:21:15;;;;;;;0.20;0.20;;;;;;;16.66;66.94;102043.03;2112677;28;20060;-65
2022/08/28 01:22:28;;;;;;;0.20;0.20;;;;;;;16.64;66.95;102051.56;2113141;28;20098;-66
2022/08/28 01:23:50;;;;;;;0.20;0.20;;;;;;;16.59;67.27;102051.84;2099235;28;20084;-66
2022/08/28 01:24:56;;;;;;;0.20;0.20;;;;;;;16.64;67.17;102048.03;2100311;28;20075;-65
2022/08/28 01:25:59;;;;;;;0.20;0.20;;;;;;;16.64;66.95;102051.56;2106252;28;20097;-65
2022/08/28 01:27:04;;;;;;;0.20;0.20;;;;;;;16.60;66.96;102053.44;2097855;28;20292;-66
2022/08/28 01:28:11;;;;;;;0.30;0.30;;;;;;;16.61;67.01;102056.94;2101340;28;20098;-66
2022/08/28 01:29:15;;;;;;;0.30;0.30;;;;;;;16.57;67.33;102058.78;2097925;28;20052;-65
2022/08/28 01:30:21;;;;;;;0.20;0.20;;;;;;;16.56;66.93;102054.47;2097821;28;20052;-65
2022/08/28 01:31:27;;;;;;;0.22;0.22;;;;;;;16.55;67.16;102056.41;2097960;28;20044;-66
2022/08/28 01:32:34;;;;;;;0.30;0.30;;;;;;;16.54;67.17;102052.09;2097995;28;20462;-65
2022/08/28 01:33:38;;;;;;;0.20;0.20;;;;;;;16.54;67.32;102056.78;2113583;28;20109;-65
2022/08/28 01:34:43;;;;;;;0.30;0.30;;;;;;;16.52;67.48;102059.03;2106812;28;20049;-66
2022/08/28 01:35:48;;;;;;;0.30;0.30;;;;;;;16.53;67.38;102060.63;2102859;28;20048;-65
2022/08/28 01:36:50;;;;;;;0.30;0.30;;;;;;;16.52;67.28;102059.03;2106067;28;20056;-66
2022/08/28 01:37:56;;;;;;;0.20;0.20;;;;;;;16.52;67.49;102059.84;2106062;28;20051;-66
2022/08/28 01:39:06;;;;;;;0.20;0.20;;;;;;;16.51;67.74;102065.66;2108769;28;20059;-66
2022/08/28 01:40:16;;;;;;;0.40;0.40;;;;;;;16.49;67.42;102060.53;2106092;28;20048;-66
2022/08/28 01:41:19;;;;;;;0.20;0.20;;;;;;;16.45;67.55;102054.19;2106435;28;20499;-65
2022/08/28 01:42:24;;;;;;;0.30;0.30;;;;;;;16.46;67.56;102049.53;2114488;28;20052;-66
2022/08/28 01:43:27;;;;;;;0.30;0.30;;;;;;;16.44;67.34;102047.16;2098053;28;20817;-66
2022/08/28 01:44:30;;;;;;;0.30;0.30;;;;;;;16.43;67.51;102054.53;2114591;28;20100;-66
2022/08/28 01:45:32;;;;;;;0.30;0.30;;;;;;;16.40;67.40;102049.78;2109620;28;20087;-65
2022/08/28 01:46:35;;;;;;;0.28;0.28;;;;;;;16.42;67.37;102057.59;2106321;28;20051;-66
2022/08/28 01:47:42;;;;;;;0.30;0.30;;;;;;;16.40;67.34;102055.22;2097700;28;20061;-66
2022/08/28 01:48:45;;;;;;;0.20;0.20;;;;;;;16.41;67.44;102054.06;2105159;28;20573;-64
2022/08/28 01:49:48;;;;;;;0.30;0.30;;;;;;;16.42;67.22;102055.69;2114470;28;20131;-64
2022/08/28 01:50:51;;;;;;;0.20;0.20;;;;;;;16.43;67.04;102053.72;2113896;28;20056;-64
2022/08/28 01:51:53;;;;;;;0.20;0.20;;;;;;;16.43;67.02;102048.25;2110414;28;20122;-64
2022/08/28 01:52:56;;;;;;;0.20;0.20;;;;;;;16.42;67.09;102054.88;2114055;28;20055;-64
2022/08/28 01:53:58;;;;;;;0.20;0.20;;;;;;;16.41;67.00;102056.78;2113865;28;20051;-64
2022/08/28 01:55:03;;;;;;;0.20;0.20;;;;;;;16.42;66.99;102054.88;2112757;28;20063;-64
2022/08/28 01:56:10;;;;;;;0.28;0.28;;;;;;;16.38;67.24;102054.78;2103507;28;20583;-64
2022/08/28 01:57:13;;;;;;;0.30;0.30;;;;;;;16.37;67.22;102047.75;2101008;28;20040;-64
2022/08/28 01:58:18;;;;;;;0.30;0.30;;;;;;;16.38;67.25;102051.25;2096853;28;20357;-65
2022/08/28 01:59:21;;;;;;;0.30;0.30;;;;;;;16.38;67.33;102048.53;2097096;28;20060;-64
2022/08/28 02:00:26;;;;;;;0.20;0.20;;;;;;;16.40;67.26;102059.88;2101120;28;20436;-64
2022/08/28 02:01:29;;;;;;;0.30;0.30;;;;;;;16.42;67.27;102054.88;2105880;28;20056;-64
2022/08/28 02:02:31;;;;;;;0.20;0.20;;;;;;;16.42;67.29;102052.94;2097478;28;20106;-64
2022/08/28 02:03:34;;;;;;;0.20;0.20;;;;;;;16.42;67.35;102055.69;2104516;28;20108;-64
2022/08/28 02:04:36;;;;;;;0.20;0.20;;;;;;;16.46;67.38;102060.44;2110838;28;20052;-64
2022/08/28 02:05:40;;;;;;;0.20;0.20;;;;;;;16.44;67.27;102061.56;2106046;28;20415;-64
2022/08/28 02:06:42;;;;;;;0.30;0.30;;;;;;;16.48;67.50;102060.88;2113513;28;20126;-64
2022/08/28 02:07:45;;;;;;;0.30;0.30;;;;;;;16.48;67.49;102061.69;2108085;28;20061;-64
2022/08/28 02:08:49;;;;;;;0.30;0.30;;;;;;;16.49;67.12;102054.28;2097553;28;20105;-64
2022/08/28 02:09:52;;;;;;;0.20;0.20;;;;;;;16.50;67.34;102059.41;2104652;28;20100;-64
2022/08/28 02:10:55;;;;;;;0.30;0.30;;;;;;;16.52;67.23;102059.84;2107901;28;20135;-64
2022/08/28 02:11:58;;;;;;;0.30;0.30;;;;;;;16.52;67.49;102059.84;2114397;28;20047;-66
2022/08/28 02:13:04;;;;;;;0.28;0.28;;;;;;;16.53;66.95;102061.41;2110937;28;20055;-65
2022/08/28 02:14:07;;;;;;;0.30;0.30;;;;;;;16.53;67.07;102063.34;2106001;28;20122;-65
2022/08/28 02:15:10;;;;;;;0.30;0.30;;;;;;;16.54;66.92;102063.00;2098730;28;20064;-65
2022/08/28 02:16:13;;;;;;;0.20;0.20;;;;;;;16.55;66.92;102069.25;2097254;28;20048;-65
2022/08/28 02:17:16;;;;;;;0.20;0.20;;;;;;;16.54;66.77;102063.00;2097630;28;20363;-65
2022/08/28 02:18:18;;;;;;;0.28;0.28;;;;;;;16.54;66.84;102063.00;2109921;28;20051;-65
2022/08/28 02:19:21;;;;;;;0.30;0.30;;;;;;;16.55;66.87;102069.25;2113854;28;20554;-65
2022/08/28 02:20:23;;;;;;;0.30;0.30;;;;;;;16.55;66.59;102063.78;2114328;28;20085;-65
2022/08/28 02:21:26;;;;;;;0.30;0.30;;;;;;;16.57;66.55;102070.47;2107578;28;20048;-65
2022/08/28 02:22:28;;;;;;;0.32;0.32;;;;;;;16.57;66.57;102066.97;2105623;28;20056;-65
2022/08/28 02:23:31;;;;;;;0.30;0.30;;;;;;;16.56;66.47;102070.81;2114197;28;20552;-65
2022/08/28 02:24:33;;;;;;;0.30;0.30;;;;;;;16.55;66.48;102070.06;2113716;28;20051;-65
2022/08/28 02:25:38;;;;;;;0.30;0.30;;;;;;;16.54;66.69;102068.44;2113662;28;20086;-66
2022/08/28 02:26:43;;;;;;;0.30;0.30;;;;;;;16.56;66.53;102070.81;2114243;28;20126;-66
2022/08/28 02:27:46;;;;;;;0.30;0.30;;;;;;;16.54;66.51;102073.13;2113643;28;20114;-65
2022/08/28 02:28:48;;;;;;;0.30;0.30;;;;;;;16.55;66.53;102063.78;2113578;28;20051;-67
2022/08/28 02:29:52;;;;;;;0.20;0.20;;;;;;;16.55;66.41;102069.25;2113687;28;20111;-66
2022/08/28 02:30:54;;;;;;;0.30;0.30;;;;;;;16.54;66.21;102067.69;2105758;28;20486;-66
2022/08/28 02:31:57;;;;;;;0.30;0.30;;;;;;;16.54;66.38;102068.44;2100774;28;20056;-65
2022/08/28 02:33:00;;;;;;;0.40;0.40;;;;;;;16.53;66.37;102066.88;2097330;28;20057;-66
2022/08/28 02:34:03;;;;;;;0.30;0.30;;;;;;;16.55;66.37;102066.53;2105639;28;20127;-65
2022/08/28 02:35:06;;;;;;;0.30;0.30;;;;;;;16.55;66.46;102069.25;2101211;28;20052;-65
2022/08/28 02:36:14;;;;;;;0.30;0.30;;;;;;;16.55;66.37;102069.25;2096850;28;20059;-66
2022/08/28 02:37:17;;;;;;;0.30;0.30;;;;;;;16.56;66.38;102066.16;2097266;28;20105;-66
2022/08/28 02:38:21;;;;;;;0.30;0.30;;;;;;;16.56;66.32;102066.16;2097064;28;20124;-65
2022/08/28 02:39:23;;;;;;;0.30;0.30;;;;;;;16.56;66.41;102068.09;2097338;28;20100;-65
2022/08/28 02:40:26;;;;;;;0.30;0.30;;;;;;;16.57;66.49;102069.69;2098724;28;20087;-65
2022/08/28 02:41:28;;;;;;;0.30;0.30;;;;;;;16.55;66.53;102070.06;2102139;28;20183;-70
2022/08/28 02:42:32;;;;;;;0.30;0.30;;;;;;;16.55;66.47;102067.31;2097453;28;20052;-69
2022/08/28 02:43:34;;;;;;;0.20;0.20;;;;;;;16.53;66.63;102068.78;2100372;28;20112;-69
2022/08/28 02:44:38;;;;;;;0.30;0.30;;;;;;;16.53;66.74;102069.59;2105572;28;20052;-70
2022/08/28 02:45:39;;;;;;;0.30;0.30;;;;;;;16.52;66.71;102061.78;2112875;28;20499;-70
2022/08/28 02:46:42;;;;;;;0.30;0.30;;;;;;;16.53;66.41;102066.06;2113486;28;20059;-70
2022/08/28 02:47:45;;;;;;;0.30;0.30;;;;;;;16.52;66.65;102056.31;2113914;28;20128;-70
2022/08/28 02:48:49;;;;;;;0.28;0.28;;;;;;;16.50;66.54;102056.66;2113301;28;20051;-69
2022/08/28 02:49:51;;;;;;;0.20;0.20;;;;;;;16.47;66.64;102064.75;2111422;28;20051;-69
2022/08/28 02:50:57;;;;;;;0.28;0.28;;;;;;;16.42;66.63;102063.84;2105630;28;20048;-70
2022/08/28 02:52:00;;;;;;;0.30;0.30;;;;;;;16.39;66.94;102066.47;2111351;28;20043;-70
2022/08/28 02:53:02;;;;;;;0.30;0.30;;;;;;;16.37;66.76;102064.09;2111397;28;20552;-70
2022/08/28 02:54:05;;;;;;;0.28;0.28;;;;;;;16.36;66.72;102062.50;2105470;28;20131;-70
2022/08/28 02:55:10;;;;;;;0.20;0.20;;;;;;;16.37;66.79;102066.84;2111224;28;20040;-70
2022/08/28 02:56:13;;;;;;;0.30;0.30;;;;;;;16.36;66.78;102065.22;2112677;28;20122;-70
2022/08/28 02:57:15;;;;;;;0.25;0.25;;;;;;;16.38;66.68;102065.69;2114014;28;20055;-70
2022/08/28 02:58:19;;;;;;;0.30;0.30;;;;;;;16.39;66.68;102072.69;2107916;28;20048;-70
2022/08/28 02:59:21;;;;;;;0.20;0.20;;;;;;;16.39;66.57;102071.94;2105283;28;20424;-70
2022/08/28 03:00:25;;;;;;;0.20;0.20;;;;;;;16.36;66.53;102067.94;2113256;28;20082;-70
2022/08/28 03:01:27;;;;;;;0.30;0.30;;;;;;;16.37;66.66;102060.56;2108113;28;20448;-70
2022/08/28 03:02:31;;;;;;;0.22;0.22;;;;;;;16.38;66.51;102065.69;2105039;28;20431;-69
2022/08/28 03:03:33;;;;;;;0.20;0.20;;;;;;;16.36;66.74;102067.19;2097047;28;20051;-70
2022/08/28 03:04:37;;;;;;;0.30;0.30;;;;;;;16.37;66.63;102072.28;2102941;28;20055;-69
2022/08/28 03:05:40;;;;;;;0.20;0.20;;;;;;;16.35;66.95;102060.94;2106260;28;20091;-70
2022/08/28 03:06:42;;;;;;;0.30;0.30;;;;;;;16.35;66.76;102071.81;2113933;28;20090;-70
2022/08/28 03:07:45;;;;;;;0.30;0.30;;;;;;;16.36;66.50;102061.72;2103122;28;20135;-70
2022/08/28 03:08:47;;;;;;;0.30;0.30;;;;;;;16.35;66.80;102060.13;2097579;28;20128;-70
2022/08/28 03:09:50;;;;;;;0.20;0.20;;;;;;;16.33;66.91;102055.03;2113799;27;20063;-70
2022/08/28 03:10:52;;;;;;;0.20;0.20;;;;;;;16.34;66.85;102050.38;2108597;28;20071;-70
2022/08/28 03:11:55;;;;;;;0.20;0.20;;;;;;;16.33;67.02;102059.69;2105478;28;20662;-69
2022/08/28 03:12:57;;;;;;;0.28;0.28;;;;;;;16.33;67.00;102068.66;2105069;28;20051;-70
2022/08/28 03:14:02;;;;;;;0.20;0.20;;;;;;;16.29;67.00;102059.59;2108079;28;20124;-69
2022/08/28 03:15:06;;;;;;;0.30;0.30;;;;;;;16.25;67.26;102047.03;2113786;28;20104;-70
2022/08/28 03:16:09;;;;;;;0.20;0.20;;;;;;;16.23;67.29;102062.94;2112843;28;20083;-69
2022/08/28 03:17:11;;;;;;;0.20;0.20;;;;;;;16.21;67.21;102052.38;2112931;28;20437;-71
2022/08/28 03:18:16;;;;;;;0.25;0.25;;;;;;;16.17;67.20;102062.38;2113974;28;20055;-70
2022/08/28 03:19:19;;;;;;;0.20;0.20;;;;;;;16.15;67.21;102056.50;2112744;28;20506;-70
2022/08/28 03:20:22;;;;;;;0.20;0.20;;;;;;;16.13;67.11;102055.25;2112749;28;20098;-69
2022/08/28 03:21:24;;;;;;;0.30;0.30;;;;;;;16.11;67.12;102063.78;2113695;28;20130;-70
2022/08/28 03:23:43;;;;;;;0.30;0.30;;;;;;;16.04;67.05;102065.50;2101293;28;20084;-70
2022/08/28 03:24:45;;;;;;;0.30;0.30;;;;;;;16.03;67.08;102070.16;2097090;28;20132;-70
2022/08/28 03:25:47;;;;;;;0.30;0.30;;;;;;;16.01;67.15;102058.84;2097060;28;20469;-70
2022/08/28 03:26:50;;;;;;;0.20;0.20;;;;;;;16.02;67.06;102074.03;2097583;28;20059;-70
2022/08/28 03:27:53;;;;;;;0.28;0.28;;;;;;;16.02;66.91;102073.22;2096836;28;20131;-70
2022/08/28 03:28:56;;;;;;;0.20;0.20;;;;;;;16.03;67.21;102070.16;2103897;28;20055;-69
2022/08/28 03:30:03;;;;;;;0.20;0.20;;;;;;;16.03;67.21;102070.16;2103230;28;20500;-70
2022/08/28 03:31:06;;;;;;;0.30;0.30;;;;;;;16.03;67.24;102075.63;2096895;28;20123;-70
2022/08/28 03:32:08;;;;;;;0.30;0.30;;;;;;;16.02;67.30;102074.03;2104705;28;20594;-70
2022/08/28 03:33:11;;;;;;;0.30;0.30;;;;;;;16.03;67.35;102072.88;2104801;27;20096;-70
2022/08/28 03:34:13;;;;;;;0.30;0.30;;;;;;;16.05;67.46;102078.78;2097052;28;20057;-69
2022/08/28 03:35:16;;;;;;;0.20;0.20;;;;;;;16.08;67.52;102069.91;2096984;28;20475;-69
2022/08/28 03:36:23;;;;;;;0.28;0.28;;;;;;;16.10;67.86;102081.28;2096771;28;20116;-69
2022/08/28 03:37:25;;;;;;;0.20;0.20;;;;;;;16.08;67.56;102074.56;2096874;28;20116;-70
2022/08/28 03:38:28;;;;;;;0.30;0.30;;;;;;;16.11;67.92;102074.66;2102716;28;20105;-69
2022/08/28 03:39:30;;;;;;;0.20;0.20;;;;;;;16.12;67.84;102079.00;2106351;28;20101;-69
2022/08/28 03:40:33;;;;;;;0.30;0.30;;;;;;;16.13;67.80;102077.03;2111284;28;20098;-70
2022/08/28 03:41:35;;;;;;;0.20;0.20;;;;;;;16.14;68.04;102073.97;2110131;28;20054;-69
2022/08/28 03:42:38;;;;;;;0.30;0.30;;;;;;;16.17;67.83;102075.22;2113225;28;20055;-69
2022/08/28 03:43:41;;;;;;;0.30;0.30;;;;;;;16.18;68.00;102083.06;2105387;28;20514;-70
2022/08/28 03:44:44;;;;;;;0.25;0.25;;;;;;;16.19;67.94;102073.72;2112871;28;20407;-69
2022/08/28 03:45:59;;;;;;;0.30;0.30;;;;;;;16.16;68.44;102073.63;2095945;28;20135;-69
2022/08/28 03:47:01;;;;;;;0.20;0.20;;;;;;;16.19;68.47;102078.38;2099221;28;20049;-70
2022/08/28 03:48:06;;;;;;;0.20;0.20;;;;;;;16.19;68.50;102072.91;2095716;28;20084;-70
2022/08/28 03:49:08;;;;;;;0.20;0.20;;;;;;;16.17;68.49;102076.00;2096816;28;20080;-70
2022/08/28 03:50:11;;;;;;;0.20;0.20;;;;;;;16.19;68.60;102078.38;2096633;28;20097;-70
2022/08/28 03:51:16;;;;;;;0.20;0.20;;;;;;;16.18;68.43;102074.88;2096857;28;20060;-69
2022/08/28 03:52:19;;;;;;;0.20;0.20;;;;;;;16.16;68.97;102081.78;2105205;28;20051;-70
2022/08/28 03:53:23;;;;;;;0.20;0.20;;;;;;;16.16;68.99;102077.16;2100338;28;20499;-70
2022/08/28 03:54:26;;;;;;;0.30;0.30;;;;;;;16.16;68.76;102084.53;2096568;28;20056;-69
2022/08/28 03:55:28;;;;;;;0.30;0.30;;;;;;;16.18;68.82;102083.06;2096778;28;20525;-69
2022/08/28 03:56:31;;;;;;;0.30;0.30;;;;;;;16.20;69.01;102086.22;2100692;28;20040;-70
2022/08/28 03:57:34;;;;;;;0.30;0.30;;;;;;;16.22;68.63;102083.16;2105186;28;20537;-69
2022/08/28 03:58:38;;;;;;;0.30;0.30;;;;;;;16.21;68.84;102081.56;2113217;28;20122;-70
2022/08/28 03:59:40;;;;;;;0.22;0.22;;;;;;;16.21;68.67;102087.81;2106167;28;20069;-69
2022/08/28 04:00:43;;;;;;;0.30;0.30;;;;;;;16.21;68.90;102082.34;2096807;28;20548;-69
2022/08/28 04:01:47;;;;;;;0.20;0.20;;;;;;;16.20;68.82;102075.31;2096761;28;20059;-70
2022/08/28 04:02:50;;;;;;;0.20;0.20;;;;;;;16.20;68.75;102085.44;2096321;28;20084;-69
2022/08/28 04:03:52;;;;;;;0.20;0.20;;;;;;;16.19;68.70;102084.63;2096882;28;20365;-70
2022/08/28 04:04:55;;;;;;;0.20;0.20;;;;;;;16.19;68.35;102081.91;2104831;28;20422;-70
2022/08/28 04:05:57;;;;;;;0.28;0.28;;;;;;;16.21;68.10;102081.56;2107913;28;20082;-70
2022/08/28 04:07:00;;;;;;;0.30;0.30;;;;;;;16.22;68.10;102081.19;2112821;28;20052;-70
2022/08/28 04:08:03;;;;;;;0.20;0.20;;;;;;;16.21;67.94;102087.81;2113013;28;20055;-69
2022/08/28 04:09:06;;;;;;;0.30;0.30;;;;;;;16.23;67.49;102095.63;2113181;28;20567;-71
2022/08/28 04:10:08;;;;;;;0.30;0.30;;;;;;;16.23;67.17;102096.44;2113471;28;20111;-70
2022/08/28 04:11:11;;;;;;;0.30;0.30;;;;;;;16.26;67.21;102093.00;2112980;28;20171;-69
2022/08/28 04:12:14;;;;;;;0.30;0.30;;;;;;;16.26;66.83;102092.19;2108411;28;20059;-70
2022/08/28 04:13:18;;;;;;;0.20;0.20;;;;;;;16.28;66.77;102096.16;2096782;28;20124;-69
2022/08/28 04:14:20;;;;;;;0.20;0.20;;;;;;;16.27;66.58;102108.22;2103393;28;20555;-70
2022/08/28 04:15:23;;;;;;;0.30;0.30;;;;;;;16.27;66.59;102102.75;2106937;28;20130;-70
2022/08/28 04:16:26;;;;;;;0.20;0.20;;;;;;;16.29;66.66;102105.13;2113314;28;20056;-70
2022/08/28 04:17:31;;;;;;;0.30;0.30;;;;;;;16.30;66.43;102107.50;2112872;28;20139;-70
2022/08/28 04:18:34;;;;;;;0.30;0.30;;;;;;;16.31;66.62;102100.94;2113057;28;20051;-70
2022/08/28 04:19:37;;;;;;;0.20;0.20;;;;;;;16.32;66.66;102112.63;2113476;28;20564;-70
2022/08/28 04:20:39;;;;;;;0.20;0.20;;;;;;;16.33;66.83;102103.31;2113137;28;20126;-70
2022/08/28 04:21:47;;;;;;;0.20;0.20;;;;;;;16.31;66.72;102102.84;2113081;28;20059;-70
2022/08/28 04:22:49;;;;;;;0.30;0.30;;;;;;;16.35;66.66;102104.53;2113458;28;20060;-69
2022/08/28 04:23:56;;;;;;;0.20;0.20;;;;;;;16.36;66.55;102103.38;2106903;28;20047;-70
2022/08/28 04:24:58;;;;;;;0.38;0.38;;;;;;;16.37;66.65;102101.47;2106317;28;20048;-70
2022/08/28 04:26:04;;;;;;;0.30;0.30;;;;;;;16.37;66.71;102096.81;2113519;28;20556;-70
2022/08/28 04:27:06;;;;;;;0.30;0.30;;;;;;;16.34;66.91;102107.63;2107113;28;20556;-69
2022/08/28 04:28:09;;;;;;;0.30;0.30;;;;;;;16.33;66.99;102100.59;2105722;28;20490;-70
2022/08/28 04:29:11;;;;;;;0.40;0.40;;;;;;;16.31;67.03;102106.38;2113021;28;20070;-70
2022/08/28 04:30:14;;;;;;;0.40;0.40;;;;;;;16.31;67.26;102100.94;2112502;28;20121;-70
2022/08/28 04:31:16;;;;;;;0.30;0.30;;;;;;;16.29;67.23;102105.94;2111891;28;20063;-69
2022/08/28 04:32:35;;;;;;;0.40;0.40;;;;;;;16.26;67.51;102101.19;2113235;28;20047;-70
2022/08/28 04:33:37;;;;;;;0.40;0.40;;;;;;;16.26;67.68;102100.38;2113012;28;20111;-70
2022/08/28 04:34:40;;;;;;;0.30;0.30;;;;;;;16.27;67.55;102108.22;2110781;28;20495;-69
2022/08/28 04:35:42;;;;;;;0.30;0.30;;;;;;;16.27;67.29;102112.84;2096254;28;20512;-71
2022/08/28 04:36:45;;;;;;;0.40;0.40;;;;;;;16.26;67.44;102105.84;2109489;28;20546;-70
2022/08/28 04:37:48;;;;;;;0.30;0.30;;;;;;;16.24;67.27;102108.91;2111962;28;20103;-71
2022/08/28 04:38:51;;;;;;;0.30;0.30;;;;;;;16.21;67.39;102106.06;2104457;28;20135;-70
2022/08/28 04:39:53;;;;;;;0.40;0.40;;;;;;;16.24;67.34;102113.56;2104151;28;20091;-70
2022/08/28 04:40:56;;;;;;;0.30;0.30;;;;;;;16.23;67.26;102112.78;2104930;28;20075;-69
2022/08/28 04:41:59;;;;;;;0.30;0.30;;;;;;;16.24;67.23;102122.53;2112797;28;20098;-69
2022/08/28 04:43:02;;;;;;;0.30;0.30;;;;;;;16.24;66.91;102119.81;2111629;28;20100;-70
2022/08/28 04:44:05;;;;;;;0.30;0.30;;;;;;;16.27;66.70;102124.56;2113532;28;20122;-69
2022/08/28 04:45:09;;;;;;;0.30;0.30;;;;;;;16.26;66.80;102117.53;2102738;28;20048;-70
2022/08/28 04:46:13;;;;;;;0.35;0.35;;;;;;;16.28;66.81;102114.47;2105028;28;20049;-70
2022/08/28 04:47:16;;;;;;;0.40;0.40;;;;;;;16.29;66.55;102119.56;2111144;28;20403;-69
2022/08/28 04:48:19;;;;;;;0.30;0.30;;;;;;;16.30;66.35;102118.41;2101598;28;20101;-70
2022/08/28 04:49:22;;;;;;;0.40;0.40;;;;;;;16.30;66.54;102123.06;2109549;28;20127;-70
2022/08/28 04:50:26;;;;;;;0.30;0.30;;;;;;;16.30;66.37;102129.31;2104917;28;20514;-70
2022/08/28 04:51:30;;;;;;;0.40;0.40;;;;;;;16.32;66.20;102127.03;2101395;28;20064;-69
2022/08/28 04:52:32;;;;;;;0.32;0.32;;;;;;;16.31;66.46;102124.66;2106434;28;20069;-69
2022/08/28 04:53:36;;;;;;;0.40;0.40;;;;;;;16.30;66.23;102123.06;2109067;28;20108;-70
2022/08/28 04:54:38;;;;;;;0.40;0.40;;;;;;;16.33;65.98;102136.78;2101275;28;20078;-70
2022/08/28 04:55:41;;;;;;;0.40;0.40;;;;;;;16.34;66.22;102123.97;2107532;28;20084;-70
2022/08/28 04:56:55;;;;;;;0.40;0.40;;;;;;;16.35;65.94;102141.91;2110472;28;20526;-70
2022/08/28 04:57:58;;;;;;;0.40;0.40;;;;;;;16.36;65.76;102133.38;2092362;28;20061;-69
2022/08/28 04:59:01;;;;;;;0.40;0.40;;;;;;;16.38;65.89;102141.19;2100376;28;20075;-70
2022/08/28 05:00:06;;;;;;;0.40;0.40;;;;;;;16.41;65.75;102135.84;2112260;28;20483;-69
2022/08/28 05:01:12;;;;;;;0.40;0.40;;;;;;;16.42;65.51;102134.72;2100542;28;20587;-69
2022/08/28 05:02:15;;;;;;;0.40;0.40;;;;;;;16.46;65.25;102136.78;2102583;28;20370;-70